sensor_id;sensor_type;location;lat;lon;timestamp;temperature;humidity
52181;DHT22;38158;53.338;6.514;2022-08-21T00:01:23;15.30;99.90
52181;DHT22;38158;53.338;6.514;2022-08-21T00:03:49;15.30;99.90
52181;DHT22;38158;53.338;6.514;2022-08-21T00:06:15;15.30;99.90
52181;DHT22;38158;53.338;6.514;2022-08-21T00:08:41;15.30;99.90
52181;DHT22;38158;53.338;6.514;2022-08-21T00:11:07;15.30;99.90
52181;DHT22;38158;53.338;6.514;2022-08-21T00:13:33;15.30;99.90
52181;DHT22;38158;53.338;6.514;2022-08-21T00:15:59;15.30;99.90
52181;DHT22;38158;53.338;6.514;2022-08-21T00:18:25;15.20;99.90
52181;DHT22;38158;53.338;6.514;2022-08-21T00:20:51;15.30;99.90
52181;DHT22;38158;53.338;6.514;2022-08-21T00:23:17;15.30;99.90
52181;DHT22;38158;53.338;6.514;2022-08-21T00:25:43;15.40;99.90
52181;DHT22;38158;53.338;6.514;2022-08-21T00:28:10;15.40;99.90
52181;DHT22;38158;53.338;6.514;2022-08-21T00:30:36;15.40;99.90
52181;DHT22;38158;53.338;6.514;2022-08-21T00:33:03;15.40;99.90
52181;DHT22;38158;53.338;6.514;2022-08-21T00:35:33;15.40;99.90
52181;DHT22;38158;53.338;6.514;2022-08-21T00:37:59;15.40;99.90
52181;DHT22;38158;53.338;6.514;2022-08-21T00:40:53;15.40;99.90
52181;DHT22;38158;53.338;6.514;2022-08-21T00:43:23;15.30;99.90
52181;DHT22;38158;53.338;6.514;2022-08-21T00:45:50;15.30;99.90
52181;DHT22;38158;53.338;6.514;2022-08-21T00:48:15;15.30;99.90
52181;DHT22;38158;53.338;6.514;2022-08-21T00:51:48;15.30;99.90
52181;DHT22;38158;53.338;6.514;2022-08-21T00:53:56;15.30;99.90
52181;DHT22;38158;53.338;6.514;2022-08-21T00:56:24;15.20;99.90
52181;DHT22;38158;53.338;6.514;2022-08-21T00:58:51;15.30;99.90
52181;DHT22;38158;53.338;6.514;2022-08-21T01:01:18;15.20;99.90
52181;DHT22;38158;53.338;6.514;2022-08-21T01:03:44;15.10;99.90
52181;DHT22;38158;53.338;6.514;2022-08-21T01:06:10;15.10;99.90
52181;DHT22;38158;53.338;6.514;2022-08-21T01:08:36;15.10;99.90
52181;DHT22;38158;53.338;6.514;2022-08-21T01:11:03;15.00;99.90
52181;DHT22;38158;53.338;6.514;2022-08-21T01:13:31;15.00;99.90
52181;DHT22;38158;53.338;6.514;2022-08-21T01:15:58;15.00;99.90
52181;DHT22;38158;53.338;6.514;2022-08-21T01:18:27;15.00;99.90
52181;DHT22;38158;53.338;6.514;2022-08-21T01:21:09;15.00;99.90
52181;DHT22;38158;53.338;6.514;2022-08-21T01:23:36;14.90;99.90
52181;DHT22;38158;53.338;6.514;2022-08-21T01:26:04;14.90;99.90
52181;DHT22;38158;53.338;6.514;2022-08-21T01:28:34;14.90;99.90
52181;DHT22;38158;53.338;6.514;2022-08-21T01:31:03;14.90;99.90
52181;DHT22;38158;53.338;6.514;2022-08-21T01:33:30;14.90;99.90
52181;DHT22;38158;53.338;6.514;2022-08-21T01:35:56;14.90;99.90
52181;DHT22;38158;53.338;6.514;2022-08-21T01:38:22;15.00;99.90
52181;DHT22;38158;53.338;6.514;2022-08-21T01:40:48;15.00;99.90
52181;DHT22;38158;53.338;6.514;2022-08-21T01:43:13;15.00;99.90
52181;DHT22;38158;53.338;6.514;2022-08-21T01:45:39;14.90;99.90
52181;DHT22;38158;53.338;6.514;2022-08-21T01:48:05;14.90;99.90
52181;DHT22;38158;53.338;6.514;2022-08-21T01:50:31;14.90;99.90
52181;DHT22;38158;53.338;6.514;2022-08-21T01:52:57;14.90;99.90
52181;DHT22;38158;53.338;6.514;2022-08-21T01:55:23;14.90;99.90
52181;DHT22;38158;53.338;6.514;2022-08-21T01:57:49;14.90;99.90
52181;DHT22;38158;53.338;6.514;2022-08-21T02:00:18;14.90;99.90
52181;DHT22;38158;53.338;6.514;2022-08-21T02:02:44;14.90;99.90
52181;DHT22;38158;53.338;6.514;2022-08-21T02:05:11;14.90;99.90
52181;DHT22;38158;53.338;6.514;2022-08-21T02:07:42;14.90;99.90
52181;DHT22;38158;53.338;6.514;2022-08-21T02:10:11;14.90;99.90
52181;DHT22;38158;53.338;6.514;2022-08-21T02:12:37;14.90;99.90
52181;DHT22;38158;53.338;6.514;2022-08-21T02:15:04;14.90;99.90
52181;DHT22;38158;53.338;6.514;2022-08-21T02:17:37;14.90;99.90
52181;DHT22;38158;53.338;6.514;2022-08-21T02:20:03;14.90;99.90
52181;DHT22;38158;53.338;6.514;2022-08-21T02:22:29;14.80;99.90
52181;DHT22;38158;53.338;6.514;2022-08-21T02:24:54;14.80;99.90
52181;DHT22;38158;53.338;6.514;2022-08-21T02:27:21;14.80;99.90
52181;DHT22;38158;53.338;6.514;2022-08-21T02:29:47;14.80;99.90
52181;DHT22;38158;53.338;6.514;2022-08-21T02:32:13;14.80;99.90
52181;DHT22;38158;53.338;6.514;2022-08-21T02:34:38;14.70;99.90
52181;DHT22;38158;53.338;6.514;2022-08-21T02:37:04;14.70;99.90
52181;DHT22;38158;53.338;6.514;2022-08-21T02:39:30;14.70;99.90
52181;DHT22;38158;53.338;6.514;2022-08-21T02:41:56;14.70;99.90
52181;DHT22;38158;53.338;6.514;2022-08-21T02:44:21;14.70;99.90
52181;DHT22;38158;53.338;6.514;2022-08-21T02:46:47;14.70;99.90
52181;DHT22;38158;53.338;6.514;2022-08-21T02:49:12;14.70;99.90
52181;DHT22;38158;53.338;6.514;2022-08-21T02:51:38;14.70;99.90
52181;DHT22;38158;53.338;6.514;2022-08-21T02:54:04;14.70;99.90
52181;DHT22;38158;53.338;6.514;2022-08-21T02:56:29;14.70;99.90
52181;DHT22;38158;53.338;6.514;2022-08-21T02:58:55;14.80;99.90
52181;DHT22;38158;53.338;6.514;2022-08-21T03:01:21;14.70;99.90
52181;DHT22;38158;53.338;6.514;2022-08-21T03:03:48;14.70;99.90
52181;DHT22;38158;53.338;6.514;2022-08-21T03:06:18;14.80;99.90
52181;DHT22;38158;53.338;6.514;2022-08-21T03:08:44;14.70;99.90
52181;DHT22;38158;53.338;6.514;2022-08-21T03:11:12;14.60;99.90
52181;DHT22;38158;53.338;6.514;2022-08-21T03:13:37;14.60;99.90
52181;DHT22;38158;53.338;6.514;2022-08-21T03:16:04;14.60;99.90
52181;DHT22;38158;53.338;6.514;2022-08-21T03:18:30;14.60;99.90
52181;DHT22;38158;53.338;6.514;2022-08-21T03:20:55;14.60;99.90
52181;DHT22;38158;53.338;6.514;2022-08-21T03:23:21;14.50;99.90
52181;DHT22;38158;53.338;6.514;2022-08-21T03:25:48;14.50;99.90
52181;DHT22;38158;53.338;6.514;2022-08-21T03:28:18;14.50;99.90
52181;DHT22;38158;53.338;6.514;2022-08-21T03:30:48;14.50;99.90
52181;DHT22;38158;53.338;6.514;2022-08-21T03:33:14;14.50;99.90
52181;DHT22;38158;53.338;6.514;2022-08-21T03:35:44;14.50;99.90
52181;DHT22;38158;53.338;6.514;2022-08-21T03:38:11;14.50;99.90
52181;DHT22;38158;53.338;6.514;2022-08-21T03:40:38;14.50;99.90
52181;DHT22;38158;53.338;6.514;2022-08-21T03:43:04;14.40;99.90
52181;DHT22;38158;53.338;6.514;2022-08-21T03:45:30;14.40;99.90
52181;DHT22;38158;53.338;6.514;2022-08-21T03:47:59;14.40;99.90
52181;DHT22;38158;53.338;6.514;2022-08-21T03:50:27;14.40;99.90
52181;DHT22;38158;53.338;6.514;2022-08-21T03:52:53;14.40;99.90
52181;DHT22;38158;53.338;6.514;2022-08-21T03:55:19;14.40;99.90
52181;DHT22;38158;53.338;6.514;2022-08-21T03:57:45;14.40;99.90
52181;DHT22;38158;53.338;6.514;2022-08-21T04:00:12;14.30;99.90
52181;DHT22;38158;53.338;6.514;2022-08-21T04:02:39;14.30;99.90
52181;DHT22;38158;53.338;6.514;2022-08-21T04:05:06;14.30;99.90
52181;DHT22;38158;53.338;6.514;2022-08-21T04:07:32;14.30;99.90
52181;DHT22;38158;53.338;6.514;2022-08-21T04:09:58;14.30;99.90
52181;DHT22;38158;53.338;6.514;2022-08-21T04:12:24;14.30;99.90
52181;DHT22;38158;53.338;6.514;2022-08-21T04:14:49;14.30;99.90
52181;DHT22;38158;53.338;6.514;2022-08-21T04:17:17;14.30;99.90
52181;DHT22;38158;53.338;6.514;2022-08-21T04:19:43;14.30;99.90
52181;DHT22;38158;53.338;6.514;2022-08-21T04:22:09;14.30;99.90
52181;DHT22;38158;53.338;6.514;2022-08-21T04:24:34;14.30;99.90
52181;DHT22;38158;53.338;6.514;2022-08-21T04:27:00;14.30;99.90
52181;DHT22;38158;53.338;6.514;2022-08-21T04:29:26;14.30;99.90
52181;DHT22;38158;53.338;6.514;2022-08-21T04:31:52;14.30;99.90
52181;DHT22;38158;53.338;6.514;2022-08-21T04:34:18;14.30;99.90
52181;DHT22;38158;53.338;6.514;2022-08-21T04:36:44;14.30;99.90
52181;DHT22;38158;53.338;6.514;2022-08-21T04:39:09;14.30;99.90
52181;DHT22;38158;53.338;6.514;2022-08-21T04:41:35;14.30;99.90
52181;DHT22;38158;53.338;6.514;2022-08-21T04:44:02;14.30;99.90
52181;DHT22;38158;53.338;6.514;2022-08-21T04:46:28;14.30;99.90
52181;DHT22;38158;53.338;6.514;2022-08-21T04:48:54;14.30;99.90
52181;DHT22;38158;53.338;6.514;2022-08-21T04:51:32;14.30;99.90
52181;DHT22;38158;53.338;6.514;2022-08-21T04:54:10;14.30;99.90
52181;DHT22;38158;53.338;6.514;2022-08-21T04:56:44;14.40;99.90
52181;DHT22;38158;53.338;6.514;2022-08-21T04:59:14;14.40;99.90
52181;DHT22;38158;53.338;6.514;2022-08-21T05:01:43;14.40;99.90
52181;DHT22;38158;53.338;6.514;2022-08-21T05:04:13;14.40;99.90
52181;DHT22;38158;53.338;6.514;2022-08-21T05:06:41;14.40;99.90
52181;DHT22;38158;53.338;6.514;2022-08-21T05:09:09;14.50;99.90
52181;DHT22;38158;53.338;6.514;2022-08-21T05:11:37;14.40;99.90
52181;DHT22;38158;53.338;6.514;2022-08-21T05:14:03;14.50;99.90
52181;DHT22;38158;53.338;6.514;2022-08-21T05:16:29;14.50;99.90
52181;DHT22;38158;53.338;6.514;2022-08-21T05:18:54;14.50;99.90
52181;DHT22;38158;53.338;6.514;2022-08-21T05:21:20;14.50;99.90
52181;DHT22;38158;53.338;6.514;2022-08-21T05:23:46;14.60;99.90
52181;DHT22;38158;53.338;6.514;2022-08-21T05:26:12;14.60;99.90
52181;DHT22;38158;53.338;6.514;2022-08-21T05:28:37;14.60;99.90
52181;DHT22;38158;53.338;6.514;2022-08-21T05:31:03;14.60;99.90
52181;DHT22;38158;53.338;6.514;2022-08-21T05:33:29;14.60;99.90
52181;DHT22;38158;53.338;6.514;2022-08-21T05:35:55;14.70;99.90
52181;DHT22;38158;53.338;6.514;2022-08-21T05:38:22;14.70;99.90
52181;DHT22;38158;53.338;6.514;2022-08-21T05:40:48;14.70;99.90
52181;DHT22;38158;53.338;6.514;2022-08-21T05:43:14;14.80;99.90
52181;DHT22;38158;53.338;6.514;2022-08-21T05:45:41;14.80;99.90
52181;DHT22;38158;53.338;6.514;2022-08-21T05:48:08;14.90;99.90
52181;DHT22;38158;53.338;6.514;2022-08-21T05:50:35;14.90;99.90
52181;DHT22;38158;53.338;6.514;2022-08-21T05:53:03;14.90;99.90
52181;DHT22;38158;53.338;6.514;2022-08-21T05:55:29;14.90;99.90
52181;DHT22;38158;53.338;6.514;2022-08-21T05:57:55;15.00;99.90
52181;DHT22;38158;53.338;6.514;2022-08-21T06:00:21;15.00;99.90
52181;DHT22;38158;53.338;6.514;2022-08-21T06:02:49;15.10;99.90
52181;DHT22;38158;53.338;6.514;2022-08-21T06:05:16;15.10;99.90
52181;DHT22;38158;53.338;6.514;2022-08-21T06:07:43;15.20;99.90
52181;DHT22;38158;53.338;6.514;2022-08-21T06:10:08;15.30;99.90
52181;DHT22;38158;53.338;6.514;2022-08-21T06:12:34;15.40;99.90
52181;DHT22;38158;53.338;6.514;2022-08-21T06:15:00;15.50;99.90
52181;DHT22;38158;53.338;6.514;2022-08-21T06:17:25;15.60;99.90
52181;DHT22;38158;53.338;6.514;2022-08-21T06:19:52;15.60;99.90
52181;DHT22;38158;53.338;6.514;2022-08-21T06:22:18;15.70;99.90
52181;DHT22;38158;53.338;6.514;2022-08-21T06:24:44;15.80;99.90
52181;DHT22;38158;53.338;6.514;2022-08-21T06:27:10;15.90;99.90
52181;DHT22;38158;53.338;6.514;2022-08-21T06:29:35;16.00;99.90
52181;DHT22;38158;53.338;6.514;2022-08-21T06:32:02;16.00;99.90
52181;DHT22;38158;53.338;6.514;2022-08-21T06:34:27;16.10;99.90
52181;DHT22;38158;53.338;6.514;2022-08-21T06:36:53;16.20;99.90
52181;DHT22;38158;53.338;6.514;2022-08-21T06:39:19;16.30;99.90
52181;DHT22;38158;53.338;6.514;2022-08-21T06:41:45;16.40;99.90
52181;DHT22;38158;53.338;6.514;2022-08-21T06:44:10;16.50;99.90
52181;DHT22;38158;53.338;6.514;2022-08-21T06:46:36;16.60;99.90
52181;DHT22;38158;53.338;6.514;2022-08-21T06:49:02;16.70;99.90
52181;DHT22;38158;53.338;6.514;2022-08-21T06:51:28;16.70;99.90
52181;DHT22;38158;53.338;6.514;2022-08-21T06:53:54;16.90;99.90
52181;DHT22;38158;53.338;6.514;2022-08-21T06:56:20;17.00;99.90
52181;DHT22;38158;53.338;6.514;2022-08-21T06:58:45;17.20;99.90
52181;DHT22;38158;53.338;6.514;2022-08-21T07:01:11;17.30;99.90
52181;DHT22;38158;53.338;6.514;2022-08-21T07:03:41;17.30;99.90
52181;DHT22;38158;53.338;6.514;2022-08-21T07:06:09;17.40;99.90
52181;DHT22;38158;53.338;6.514;2022-08-21T07:08:35;17.50;99.90
52181;DHT22;38158;53.338;6.514;2022-08-21T07:11:06;17.60;99.90
52181;DHT22;38158;53.338;6.514;2022-08-21T07:13:32;17.60;99.90
52181;DHT22;38158;53.338;6.514;2022-08-21T07:15:58;17.70;99.90
52181;DHT22;38158;53.338;6.514;2022-08-21T07:18:23;17.80;99.90
52181;DHT22;38158;53.338;6.514;2022-08-21T07:20:49;17.90;99.90
52181;DHT22;38158;53.338;6.514;2022-08-21T07:23:24;18.00;99.90
52181;DHT22;38158;53.338;6.514;2022-08-21T07:25:51;18.00;99.90
52181;DHT22;38158;53.338;6.514;2022-08-21T07:28:17;18.10;99.90
52181;DHT22;38158;53.338;6.514;2022-08-21T07:30:43;18.20;99.90
52181;DHT22;38158;53.338;6.514;2022-08-21T07:33:08;18.30;99.90
52181;DHT22;38158;53.338;6.514;2022-08-21T07:35:34;18.30;99.90
52181;DHT22;38158;53.338;6.514;2022-08-21T07:38:00;18.40;99.90
52181;DHT22;38158;53.338;6.514;2022-08-21T07:40:25;18.50;99.90
52181;DHT22;38158;53.338;6.514;2022-08-21T07:42:51;18.50;99.90
52181;DHT22;38158;53.338;6.514;2022-08-21T07:45:22;18.70;99.90
52181;DHT22;38158;53.338;6.514;2022-08-21T07:47:50;18.80;99.90
52181;DHT22;38158;53.338;6.514;2022-08-21T07:50:16;19.00;99.90
52181;DHT22;38158;53.338;6.514;2022-08-21T07:52:42;19.10;99.90
52181;DHT22;38158;53.338;6.514;2022-08-21T07:55:10;19.20;99.90
52181;DHT22;38158;53.338;6.514;2022-08-21T07:57:36;19.20;99.90
52181;DHT22;38158;53.338;6.514;2022-08-21T08:00:04;19.30;99.90
52181;DHT22;38158;53.338;6.514;2022-08-21T08:02:31;19.30;99.90
52181;DHT22;38158;53.338;6.514;2022-08-21T08:05:01;19.40;99.90
52181;DHT22;38158;53.338;6.514;2022-08-21T08:07:26;19.50;99.90
52181;DHT22;38158;53.338;6.514;2022-08-21T08:09:52;19.50;99.90
52181;DHT22;38158;53.338;6.514;2022-08-21T08:12:18;19.60;99.90
52181;DHT22;38158;53.338;6.514;2022-08-21T08:14:46;19.70;99.90
52181;DHT22;38158;53.338;6.514;2022-08-21T08:17:11;19.70;99.90
52181;DHT22;38158;53.338;6.514;2022-08-21T08:19:38;19.80;99.90
52181;DHT22;38158;53.338;6.514;2022-08-21T08:22:18;19.80;99.90
52181;DHT22;38158;53.338;6.514;2022-08-21T08:24:49;19.90;99.90
52181;DHT22;38158;53.338;6.514;2022-08-21T08:27:15;19.90;99.90
52181;DHT22;38158;53.338;6.514;2022-08-21T08:29:42;19.90;99.90
52181;DHT22;38158;53.338;6.514;2022-08-21T08:32:08;19.90;99.90
52181;DHT22;38158;53.338;6.514;2022-08-21T08:34:36;20.00;99.90
52181;DHT22;38158;53.338;6.514;2022-08-21T08:37:03;20.10;99.90
52181;DHT22;38158;53.338;6.514;2022-08-21T08:39:29;20.20;99.90
52181;DHT22;38158;53.338;6.514;2022-08-21T08:42:15;20.40;99.90
52181;DHT22;38158;53.338;6.514;2022-08-21T08:44:45;20.40;99.90
52181;DHT22;38158;53.338;6.514;2022-08-21T08:47:14;20.40;99.90
52181;DHT22;38158;53.338;6.514;2022-08-21T08:49:49;20.50;99.90
52181;DHT22;38158;53.338;6.514;2022-08-21T08:52:22;20.60;99.90
52181;DHT22;38158;53.338;6.514;2022-08-21T08:55:03;20.70;99.90
52181;DHT22;38158;53.338;6.514;2022-08-21T08:57:30;20.70;99.90
52181;DHT22;38158;53.338;6.514;2022-08-21T08:59:58;20.80;99.90
52181;DHT22;38158;53.338;6.514;2022-08-21T09:02:25;20.90;99.90
52181;DHT22;38158;53.338;6.514;2022-08-21T09:04:53;20.90;99.90
52181;DHT22;38158;53.338;6.514;2022-08-21T09:10:20;21.00;99.90
52181;DHT22;38158;53.338;6.514;2022-08-21T09:12:59;21.00;99.90
52181;DHT22;38158;53.338;6.514;2022-08-21T09:23:43;21.40;99.90
52181;DHT22;38158;53.338;6.514;2022-08-21T09:26:20;21.50;99.90
52181;DHT22;38158;53.338;6.514;2022-08-21T09:28:52;21.60;99.90
52181;DHT22;38158;53.338;6.514;2022-08-21T09:33:47;22.00;99.90
52181;DHT22;38158;53.338;6.514;2022-08-21T09:36:25;22.10;99.90
52181;DHT22;38158;53.338;6.514;2022-08-21T09:38:54;22.30;99.90
52181;DHT22;38158;53.338;6.514;2022-08-21T09:41:31;22.30;99.90
52181;DHT22;38158;53.338;6.514;2022-08-21T09:43:57;22.20;99.90
52181;DHT22;38158;53.338;6.514;2022-08-21T09:46:25;22.20;99.90
52181;DHT22;38158;53.338;6.514;2022-08-21T09:48:55;22.30;99.90
52181;DHT22;38158;53.338;6.514;2022-08-21T09:51:30;22.30;99.90
52181;DHT22;38158;53.338;6.514;2022-08-21T09:56:37;22.50;99.90
52181;DHT22;38158;53.338;6.514;2022-08-21T09:59:31;22.60;99.90
52181;DHT22;38158;53.338;6.514;2022-08-21T10:02:03;22.60;99.50
52181;DHT22;38158;53.338;6.514;2022-08-21T10:04:51;22.40;99.90
52181;DHT22;38158;53.338;6.514;2022-08-21T10:07:20;22.50;98.10
52181;DHT22;38158;53.338;6.514;2022-08-21T10:09:57;22.50;99.90
52181;DHT22;38158;53.338;6.514;2022-08-21T10:12:29;22.50;99.90
52181;DHT22;38158;53.338;6.514;2022-08-21T10:18:03;22.70;99.50
52181;DHT22;38158;53.338;6.514;2022-08-21T10:20:47;22.70;97.40
52181;DHT22;38158;53.338;6.514;2022-08-21T10:26:27;22.60;98.40
52181;DHT22;38158;53.338;6.514;2022-08-21T10:31:46;22.60;97.80
52181;DHT22;38158;53.338;6.514;2022-08-21T10:37:31;22.90;96.70
52181;DHT22;38158;53.338;6.514;2022-08-21T10:45:33;22.80;97.10
52181;DHT22;38158;53.338;6.514;2022-08-21T10:48:07;22.70;97.80
52181;DHT22;38158;53.338;6.514;2022-08-21T10:50:50;22.60;98.50
52181;DHT22;38158;53.338;6.514;2022-08-21T10:58:45;22.40;99.00
52181;DHT22;38158;53.338;6.514;2022-08-21T11:01:26;22.60;99.50
52181;DHT22;38158;53.338;6.514;2022-08-21T11:04:09;22.70;97.80
52181;DHT22;38158;53.338;6.514;2022-08-21T11:06:38;22.60;96.20
52181;DHT22;38158;53.338;6.514;2022-08-21T11:09:17;22.60;97.40
52181;DHT22;38158;53.338;6.514;2022-08-21T11:11:57;22.50;97.00
52181;DHT22;38158;53.338;6.514;2022-08-21T11:17:17;22.40;95.00
52181;DHT22;38158;53.338;6.514;2022-08-21T11:19:48;22.40;96.40
52181;DHT22;38158;53.338;6.514;2022-08-21T11:29:41;22.30;97.40
52181;DHT22;38158;53.338;6.514;2022-08-21T11:34:51;22.80;97.00
52181;DHT22;38158;53.338;6.514;2022-08-21T11:51:09;23.00;93.60
52181;DHT22;38158;53.338;6.514;2022-08-21T11:53:51;23.10;94.00
52181;DHT22;38158;53.338;6.514;2022-08-21T11:56:37;23.20;92.10
52181;DHT22;38158;53.338;6.514;2022-08-21T12:00:00;23.40;92.00
52181;DHT22;38158;53.338;6.514;2022-08-21T12:01:59;23.50;91.70
52181;DHT22;38158;53.338;6.514;2022-08-21T12:04:35;23.70;91.60
52181;DHT22;38158;53.338;6.514;2022-08-21T12:07:14;23.70;90.80
52181;DHT22;38158;53.338;6.514;2022-08-21T12:09:40;23.60;90.20
52181;DHT22;38158;53.338;6.514;2022-08-21T12:12:34;23.70;90.80
52181;DHT22;38158;53.338;6.514;2022-08-21T12:15:25;23.70;90.20
52181;DHT22;38158;53.338;6.514;2022-08-21T12:18:24;23.40;90.40
52181;DHT22;38158;53.338;6.514;2022-08-21T12:21:24;23.20;90.90
52181;DHT22;38158;53.338;6.514;2022-08-21T12:27:12;22.90;91.70
52181;DHT22;38158;53.338;6.514;2022-08-21T12:29:38;22.90;92.50
52181;DHT22;38158;53.338;6.514;2022-08-21T12:34:42;22.90;93.60
52181;DHT22;38158;53.338;6.514;2022-08-21T12:37:24;22.90;92.30
52181;DHT22;38158;53.338;6.514;2022-08-21T12:39:52;22.90;91.90
52181;DHT22;38158;53.338;6.514;2022-08-21T12:42:28;22.80;92.60
52181;DHT22;38158;53.338;6.514;2022-08-21T12:44:59;22.80;91.10
52181;DHT22;38158;53.338;6.514;2022-08-21T12:47:36;22.70;91.90
52181;DHT22;38158;53.338;6.514;2022-08-21T12:50:44;22.60;91.80
52181;DHT22;38158;53.338;6.514;2022-08-21T12:55:45;22.40;90.40
52181;DHT22;38158;53.338;6.514;2022-08-21T12:58:21;22.30;91.10
52181;DHT22;38158;53.338;6.514;2022-08-21T13:00:54;22.20;90.60
52181;DHT22;38158;53.338;6.514;2022-08-21T13:03:22;22.20;90.80
52181;DHT22;38158;53.338;6.514;2022-08-21T13:05:48;22.10;91.20
52181;DHT22;38158;53.338;6.514;2022-08-21T13:08:19;22.10;91.40
52181;DHT22;38158;53.338;6.514;2022-08-21T13:10:48;22.20;91.00
52181;DHT22;38158;53.338;6.514;2022-08-21T13:13:20;22.40;91.00
52181;DHT22;38158;53.338;6.514;2022-08-21T13:15:46;22.70;90.10
52181;DHT22;38158;53.338;6.514;2022-08-21T13:18:24;22.90;88.70
52181;DHT22;38158;53.338;6.514;2022-08-21T13:20:50;22.90;82.40
52181;DHT22;38158;53.338;6.514;2022-08-21T13:23:26;22.60;85.90
52181;DHT22;38158;53.338;6.514;2022-08-21T13:25:53;22.40;84.40
52181;DHT22;38158;53.338;6.514;2022-08-21T13:28:19;22.30;88.10
52181;DHT22;38158;53.338;6.514;2022-08-21T13:30:48;22.30;89.60
52181;DHT22;38158;53.338;6.514;2022-08-21T13:33:17;22.30;88.90
52181;DHT22;38158;53.338;6.514;2022-08-21T13:38:24;22.30;90.00
52181;DHT22;38158;53.338;6.514;2022-08-21T13:41:32;22.20;90.50
52181;DHT22;38158;53.338;6.514;2022-08-21T13:44:02;22.10;91.50
52181;DHT22;38158;53.338;6.514;2022-08-21T13:46:31;22.00;92.70
52181;DHT22;38158;53.338;6.514;2022-08-21T13:48:59;21.90;92.90
52181;DHT22;38158;53.338;6.514;2022-08-21T13:51:25;21.90;93.40
52181;DHT22;38158;53.338;6.514;2022-08-21T13:53:52;21.80;93.60
52181;DHT22;38158;53.338;6.514;2022-08-21T13:58:56;21.70;95.60
52181;DHT22;38158;53.338;6.514;2022-08-21T14:04:05;21.60;97.10
52181;DHT22;38158;53.338;6.514;2022-08-21T14:06:36;21.60;97.40
52181;DHT22;38158;53.338;6.514;2022-08-21T14:09:35;21.50;98.00
52181;DHT22;38158;53.338;6.514;2022-08-21T14:12:26;21.50;96.90
52181;DHT22;38158;53.338;6.514;2022-08-21T14:14:54;21.50;97.60
52181;DHT22;38158;53.338;6.514;2022-08-21T14:17:33;21.50;97.60
52181;DHT22;38158;53.338;6.514;2022-08-21T14:19:59;21.60;96.90
52181;DHT22;38158;53.338;6.514;2022-08-21T14:27:57;21.40;98.60
52181;DHT22;38158;53.338;6.514;2022-08-21T14:32:53;21.30;99.40
52181;DHT22;38158;53.338;6.514;2022-08-21T14:35:20;21.30;99.90
52181;DHT22;38158;53.338;6.514;2022-08-21T14:37:47;21.20;99.90
52181;DHT22;38158;53.338;6.514;2022-08-21T14:40:16;21.10;99.90
52181;DHT22;38158;53.338;6.514;2022-08-21T14:42:43;21.10;99.60
52181;DHT22;38158;53.338;6.514;2022-08-21T14:45:23;21.10;99.70
52181;DHT22;38158;53.338;6.514;2022-08-21T14:47:50;21.10;99.90
52181;DHT22;38158;53.338;6.514;2022-08-21T14:50:16;21.10;99.90
52181;DHT22;38158;53.338;6.514;2022-08-21T14:52:41;21.10;99.90
52181;DHT22;38158;53.338;6.514;2022-08-21T14:55:09;21.10;99.90
52181;DHT22;38158;53.338;6.514;2022-08-21T14:57:52;21.10;99.90
52181;DHT22;38158;53.338;6.514;2022-08-21T15:00:21;21.10;99.90
52181;DHT22;38158;53.338;6.514;2022-08-21T15:02:51;21.00;99.90
52181;DHT22;38158;53.338;6.514;2022-08-21T15:05:17;21.10;99.90
52181;DHT22;38158;53.338;6.514;2022-08-21T15:07:43;21.10;99.90
52181;DHT22;38158;53.338;6.514;2022-08-21T15:10:10;21.20;99.90
52181;DHT22;38158;53.338;6.514;2022-08-21T15:12:36;21.30;99.90
52181;DHT22;38158;53.338;6.514;2022-08-21T15:15:05;21.50;99.80
52181;DHT22;38158;53.338;6.514;2022-08-21T15:17:32;21.50;99.90
52181;DHT22;38158;53.338;6.514;2022-08-21T15:19:57;21.50;99.50
52181;DHT22;38158;53.338;6.514;2022-08-21T15:22:23;21.50;99.40
52181;DHT22;38158;53.338;6.514;2022-08-21T15:24:49;21.50;99.40
52181;DHT22;38158;53.338;6.514;2022-08-21T15:27:16;21.40;99.70
52181;DHT22;38158;53.338;6.514;2022-08-21T15:29:43;21.40;99.60
52181;DHT22;38158;53.338;6.514;2022-08-21T15:32:35;21.40;99.90
52181;DHT22;38158;53.338;6.514;2022-08-21T15:35:01;21.40;99.90
52181;DHT22;38158;53.338;6.514;2022-08-21T15:37:27;21.30;99.90
52181;DHT22;38158;53.338;6.514;2022-08-21T15:39:53;21.20;99.90
52181;DHT22;38158;53.338;6.514;2022-08-21T15:42:20;21.10;99.90
52181;DHT22;38158;53.338;6.514;2022-08-21T15:44:47;21.10;99.90
52181;DHT22;38158;53.338;6.514;2022-08-21T15:47:16;21.00;99.90
52181;DHT22;38158;53.338;6.514;2022-08-21T15:49:42;20.90;99.90
52181;DHT22;38158;53.338;6.514;2022-08-21T15:52:15;20.90;99.90
52181;DHT22;38158;53.338;6.514;2022-08-21T15:54:41;21.00;99.90
52181;DHT22;38158;53.338;6.514;2022-08-21T15:57:13;21.00;99.90
52181;DHT22;38158;53.338;6.514;2022-08-21T15:59:45;21.00;99.90
52181;DHT22;38158;53.338;6.514;2022-08-21T16:02:24;21.00;99.90
52181;DHT22;38158;53.338;6.514;2022-08-21T16:04:52;21.00;99.90
52181;DHT22;38158;53.338;6.514;2022-08-21T16:07:17;21.10;99.90
52181;DHT22;38158;53.338;6.514;2022-08-21T16:09:43;21.10;99.90
52181;DHT22;38158;53.338;6.514;2022-08-21T16:12:13;21.10;99.90
52181;DHT22;38158;53.338;6.514;2022-08-21T16:14:41;21.10;99.90
52181;DHT22;38158;53.338;6.514;2022-08-21T16:17:08;21.10;99.90
52181;DHT22;38158;53.338;6.514;2022-08-21T16:19:35;21.10;99.90
52181;DHT22;38158;53.338;6.514;2022-08-21T16:22:01;21.00;99.90
52181;DHT22;38158;53.338;6.514;2022-08-21T16:24:27;21.00;99.90
52181;DHT22;38158;53.338;6.514;2022-08-21T16:26:53;21.00;99.90
52181;DHT22;38158;53.338;6.514;2022-08-21T16:29:20;21.00;99.90
52181;DHT22;38158;53.338;6.514;2022-08-21T16:31:47;21.00;99.90
52181;DHT22;38158;53.338;6.514;2022-08-21T16:34:17;21.00;99.90
52181;DHT22;38158;53.338;6.514;2022-08-21T16:36:43;20.90;99.90
52181;DHT22;38158;53.338;6.514;2022-08-21T16:39:09;20.80;99.90
52181;DHT22;38158;53.338;6.514;2022-08-21T16:41:35;20.90;99.90
52181;DHT22;38158;53.338;6.514;2022-08-21T16:44:01;21.00;99.90
52181;DHT22;38158;53.338;6.514;2022-08-21T16:46:29;21.00;99.70
52181;DHT22;38158;53.338;6.514;2022-08-21T16:48:55;20.90;99.90
52181;DHT22;38158;53.338;6.514;2022-08-21T16:51:21;20.80;99.90
52181;DHT22;38158;53.338;6.514;2022-08-21T16:53:47;20.80;99.90
52181;DHT22;38158;53.338;6.514;2022-08-21T16:56:13;20.80;99.90
52181;DHT22;38158;53.338;6.514;2022-08-21T16:58:44;20.80;99.90
52181;DHT22;38158;53.338;6.514;2022-08-21T17:01:15;20.80;99.90
52181;DHT22;38158;53.338;6.514;2022-08-21T17:03:43;20.80;99.90
52181;DHT22;38158;53.338;6.514;2022-08-21T17:06:11;20.80;99.90
52181;DHT22;38158;53.338;6.514;2022-08-21T17:08:37;20.70;99.80
52181;DHT22;38158;53.338;6.514;2022-08-21T17:11:04;20.70;99.90
52181;DHT22;38158;53.338;6.514;2022-08-21T17:13:30;20.70;99.90